Time;durP1;ratioP1;P1;durP2;ratioP2;P2;SDS_P1;SDS_P2;PMS_P1;PMS_P2;Temp;Humidity;BMP_temperature;BMP_pressure;BME280_temperature;BME280_humidity;BME280_pressure;Samples;Min_cycle;Max_cycle;Signal;HPM_P1;HPM_P2
2021/03/19 00:01:11;;;;;;;;;;;5.10;77.90;;;;;;5003950;28;20391;-57
2021/03/19 00:03:37;;;;;;;;;;;5.10;77.80;;;;;;4991907;28;19929;-58
2021/03/19 00:06:02;;;;;;;;;;;5.00;77.90;;;;;;4991258;28;20376;-58
2021/03/19 00:08:28;;;;;;;;;;;5.00;77.90;;;;;;5005111;28;19910;-55
2021/03/19 00:10:53;;;;;;;;;;;5.00;77.90;;;;;;4990747;28;20301;-58
2021/03/19 00:13:19;;;;;;;;;;;5.00;77.90;;;;;;4986820;28;19911;-59
2021/03/19 00:15:44;;;;;;;;;;;5.00;78.00;;;;;;4988207;28;20382;-58
2021/03/19 00:18:10;;;;;;;;;;;5.00;78.00;;;;;;5006575;28;19957;-57
2021/03/19 00:20:36;;;;;;;;;;;5.00;78.00;;;;;;4990144;28;19917;-57
2021/03/19 00:23:02;;;;;;;;;;;5.00;78.00;;;;;;4990149;28;19914;-57
2021/03/19 00:25:27;;;;;;;;;;;5.00;78.10;;;;;;4990920;28;19932;-58
2021/03/19 00:27:53;;;;;;;;;;;5.00;78.10;;;;;;5006119;28;20281;-58
2021/03/19 00:30:18;;;;;;;;;;;5.00;78.10;;;;;;4990746;28;19909;-57
2021/03/19 00:32:44;;;;;;;;;;;5.00;78.10;;;;;;4990396;28;19992;-58
2021/03/19 00:35:09;;;;;;;;;;;4.90;78.10;;;;;;4989527;28;19909;-56
2021/03/19 00:37:35;;;;;;;;;;;4.90;78.20;;;;;;4991556;28;19910;-57
2021/03/19 00:40:00;;;;;;;;;;;4.90;78.20;;;;;;5005234;28;19914;-57
2021/03/19 00:42:26;;;;;;;;;;;4.90;78.20;;;;;;4990925;28;19918;-56
2021/03/19 00:44:51;;;;;;;;;;;4.90;78.20;;;;;;4990765;28;19936;-58
2021/03/19 00:47:17;;;;;;;;;;;4.90;78.30;;;;;;4989175;28;20289;-58
2021/03/19 00:49:42;;;;;;;;;;;4.90;78.30;;;;;;5007603;28;19963;-59
2021/03/19 00:52:08;;;;;;;;;;;4.90;78.30;;;;;;4990712;28;19917;-56
2021/03/19 00:54:33;;;;;;;;;;;4.90;78.40;;;;;;4993875;28;19999;-58
2021/03/19 00:56:59;;;;;;;;;;;4.90;78.40;;;;;;4990567;28;19909;-57
2021/03/19 00:59:24;;;;;;;;;;;4.90;78.40;;;;;;4990437;28;19921;-57
2021/03/19 01:01:49;;;;;;;;;;;4.80;78.40;;;;;;4988741;28;20060;-56
2021/03/19 01:04:15;;;;;;;;;;;4.90;78.40;;;;;;4990683;28;19958;-57
2021/03/19 01:06:40;;;;;;;;;;;4.80;78.40;;;;;;4990909;28;20361;-57
2021/03/19 01:09:06;;;;;;;;;;;4.90;78.40;;;;;;5004980;28;19918;-59
2021/03/19 01:11:31;;;;;;;;;;;4.80;78.40;;;;;;4991547;28;20052;-58
2021/03/19 01:13:57;;;;;;;;;;;4.80;78.40;;;;;;5008291;28;19910;-58
2021/03/19 01:16:22;;;;;;;;;;;4.80;78.40;;;;;;4993364;28;19917;-58
2021/03/19 01:18:48;;;;;;;;;;;4.80;78.50;;;;;;4994838;28;20539;-58
2021/03/19 01:21:13;;;;;;;;;;;4.80;78.60;;;;;;4994698;28;19920;-58
2021/03/19 01:23:39;;;;;;;;;;;4.80;78.60;;;;;;4994380;28;19949;-59
2021/03/19 01:26:05;;;;;;;;;;;4.80;78.60;;;;;;4991331;28;20008;-56
2021/03/19 01:28:30;;;;;;;;;;;4.80;78.60;;;;;;4993517;28;19910;-59
2021/03/19 01:30:55;;;;;;;;;;;4.80;78.60;;;;;;4993900;28;20292;-56
2021/03/19 01:33:21;;;;;;;;;;;4.80;78.70;;;;;;5003866;28;19910;-56
2021/03/19 01:35:46;;;;;;;;;;;4.80;78.70;;;;;;4994737;28;19910;-56
2021/03/19 01:38:12;;;;;;;;;;;4.80;78.80;;;;;;4993327;28;19921;-56
2021/03/19 01:40:41;;;;;;;;;;;4.80;78.70;;;;;;5007276;28;19950;-56
2021/03/19 01:43:19;;;;;;;;;;;4.70;78.70;;;;;;4997232;28;19981;-56
2021/03/19 01:46:03;;;;;;;;;;;4.70;78.70;;;;;;4988814;28;20008;-56
2021/03/19 01:48:47;;;;;;;;;;;4.70;78.70;;;;;;4993869;28;19910;-56
2021/03/19 01:51:31;;;;;;;;;;;4.70;78.80;;;;;;4993143;28;20423;-55
2021/03/19 01:54:15;;;;;;;;;;;4.70;78.90;;;;;;4988237;28;19984;-57
2021/03/19 01:56:59;;;;;;;;;;;4.70;78.90;;;;;;5007928;28;19956;-57
2021/03/19 01:59:43;;;;;;;;;;;4.70;78.90;;;;;;4986206;28;20404;-56
2021/03/19 02:02:27;;;;;;;;;;;4.70;78.80;;;;;;4993526;28;19917;-57
2021/03/19 02:05:11;;;;;;;;;;;4.70;78.80;;;;;;4992633;28;19929;-56
2021/03/19 02:07:56;;;;;;;;;;;4.70;78.90;;;;;;5007883;28;19910;-57
2021/03/19 02:10:40;;;;;;;;;;;4.70;78.90;;;;;;4993512;28;20001;-59
2021/03/19 02:13:24;;;;;;;;;;;4.70;79.00;;;;;;4993940;28;19946;-57
2021/03/19 02:16:08;;;;;;;;;;;4.70;79.10;;;;;;4993230;28;19910;-58
2021/03/19 02:18:52;;;;;;;;;;;4.70;79.00;;;;;;4984047;28;19943;-59
2021/03/19 02:21:36;;;;;;;;;;;4.60;78.90;;;;;;4992473;28;19914;-57
2021/03/19 02:24:20;;;;;;;;;;;4.70;79.00;;;;;;4992586;28;19913;-58
2021/03/19 02:27:04;;;;;;;;;;;4.70;79.00;;;;;;4985371;28;19975;-56
2021/03/19 02:29:49;;;;;;;;;;;4.60;79.00;;;;;;4988870;28;20000;-57
2021/03/19 02:32:19;;;;;;;;;;;4.60;79.10;;;;;;4991346;28;20173;-57
2021/03/19 02:34:58;;;;;;;;;;;4.60;79.00;;;;;;4984447;28;19917;-58
2021/03/19 02:37:27;;;;;;;;;;;4.60;79.10;;;;;;4991699;28;19909;-56
2021/03/19 02:39:53;;;;;;;;;;;4.60;79.20;;;;;;4993205;28;20424;-55
2021/03/19 02:42:19;;;;;;;;;;;4.60;79.20;;;;;;5007610;28;20406;-56
2021/03/19 02:44:45;;;;;;;;;;;4.60;79.20;;;;;;5006579;28;19914;-56
2021/03/19 02:47:10;;;;;;;;;;;4.60;79.20;;;;;;4991756;28;19909;-58
2021/03/19 02:49:36;;;;;;;;;;;4.60;79.20;;;;;;5008014;28;19920;-57
2021/03/19 02:52:01;;;;;;;;;;;4.60;79.20;;;;;;5004407;28;19910;-58
2021/03/19 02:54:27;;;;;;;;;;;4.60;79.20;;;;;;4993236;28;19909;-58
2021/03/19 02:56:52;;;;;;;;;;;4.50;79.30;;;;;;4991508;28;20390;-56
2021/03/19 02:59:18;;;;;;;;;;;4.50;79.30;;;;;;4991345;28;20260;-59
2021/03/19 03:01:43;;;;;;;;;;;4.50;79.30;;;;;;4992876;28;19924;-58
2021/03/19 03:04:09;;;;;;;;;;;4.50;79.40;;;;;;4992771;28;20399;-58
2021/03/19 03:06:54;;;;;;;;;;;4.50;79.40;;;;;;4992694;28;19917;-60
2021/03/19 03:09:24;;;;;;;;;;;4.50;79.40;;;;;;4992195;28;19921;-57
2021/03/19 03:11:49;;;;;;;;;;;4.50;79.50;;;;;;5005587;28;19920;-58
2021/03/19 03:14:15;;;;;;;;;;;4.40;79.50;;;;;;4998018;28;19997;-59
2021/03/19 03:16:41;;;;;;;;;;;4.40;79.50;;;;;;5004172;28;19954;-56
2021/03/19 03:19:07;;;;;;;;;;;4.40;79.60;;;;;;4999100;28;19946;-57
2021/03/19 03:21:33;;;;;;;;;;;4.40;79.60;;;;;;5010619;28;19917;-58
2021/03/19 03:23:58;;;;;;;;;;;4.40;79.60;;;;;;4991189;28;19913;-55
2021/03/19 03:26:24;;;;;;;;;;;4.40;79.60;;;;;;4989601;28;19914;-60
2021/03/19 03:28:49;;;;;;;;;;;4.40;79.60;;;;;;5000798;28;19914;-56
2021/03/19 03:31:15;;;;;;;;;;;4.40;79.70;;;;;;4992017;28;20068;-56
2021/03/19 03:33:40;;;;;;;;;;;4.40;79.70;;;;;;4992035;28;19964;-57
2021/03/19 03:36:05;;;;;;;;;;;4.40;79.70;;;;;;4991323;28;19924;-58
2021/03/19 03:38:31;;;;;;;;;;;4.40;79.70;;;;;;4990464;28;20030;-58
2021/03/19 03:41:01;;;;;;;;;;;4.30;79.60;;;;;;4991634;28;19909;-57
2021/03/19 03:43:27;;;;;;;;;;;4.40;79.70;;;;;;4999791;28;19910;-58
2021/03/19 03:45:52;;;;;;;;;;;4.30;79.60;;;;;;4991345;28;20369;-58
2021/03/19 03:48:19;;;;;;;;;;;4.30;79.70;;;;;;4991471;28;19910;-56
2021/03/19 03:50:44;;;;;;;;;;;4.30;79.70;;;;;;5005585;28;20241;-59
2021/03/19 03:53:10;;;;;;;;;;;4.30;79.80;;;;;;5006409;28;20428;-56
2021/03/19 03:55:36;;;;;;;;;;;4.30;79.80;;;;;;4991252;28;19933;-59
2021/03/19 03:58:01;;;;;;;;;;;4.30;79.90;;;;;;5006577;28;20317;-55
2021/03/19 04:00:27;;;;;;;;;;;4.20;79.90;;;;;;4988662;28;19932;-58
2021/03/19 04:02:52;;;;;;;;;;;4.20;79.90;;;;;;4989983;28;19922;-58
2021/03/19 04:05:28;;;;;;;;;;;4.20;79.90;;;;;;4990611;28;20365;-56
2021/03/19 04:07:54;;;;;;;;;;;4.20;80.00;;;;;;4998826;28;19949;-56
2021/03/19 04:10:20;;;;;;;;;;;4.20;80.00;;;;;;4990983;28;19956;-56
2021/03/19 04:12:45;;;;;;;;;;;4.20;80.00;;;;;;4998438;28;19965;-59
2021/03/19 04:15:11;;;;;;;;;;;4.20;80.10;;;;;;5002990;28;20341;-57
2021/03/19 04:17:37;;;;;;;;;;;4.20;80.10;;;;;;4999901;28;19914;-59
2021/03/19 04:20:03;;;;;;;;;;;4.20;80.10;;;;;;4991375;28;19914;-57
2021/03/19 04:22:28;;;;;;;;;;;4.20;80.10;;;;;;4997715;28;19950;-59
2021/03/19 04:24:55;;;;;;;;;;;4.10;80.10;;;;;;4988949;28;19968;-56
2021/03/19 04:27:21;;;;;;;;;;;4.10;80.10;;;;;;4996021;28;20004;-57
2021/03/19 04:29:46;;;;;;;;;;;4.10;80.30;;;;;;5004732;28;20436;-58
2021/03/19 04:32:12;;;;;;;;;;;4.10;80.30;;;;;;4996451;28;20306;-60
2021/03/19 04:34:38;;;;;;;;;;;4.10;80.20;;;;;;4989522;28;19920;-59
2021/03/19 04:37:04;;;;;;;;;;;4.10;80.20;;;;;;4991308;28;20365;-56
2021/03/19 04:39:32;;;;;;;;;;;4.10;80.30;;;;;;4996679;28;20013;-56
2021/03/19 04:41:58;;;;;;;;;;;4.00;80.30;;;;;;4989104;28;19993;-59
2021/03/19 04:44:25;;;;;;;;;;;4.00;80.30;;;;;;4990166;28;20000;-58
2021/03/19 04:46:51;;;;;;;;;;;4.00;80.30;;;;;;4993418;28;19910;-57
2021/03/19 04:49:17;;;;;;;;;;;4.00;80.40;;;;;;4989043;28;20400;-57
2021/03/19 04:51:42;;;;;;;;;;;4.00;80.40;;;;;;4999947;28;20365;-56
2021/03/19 04:54:08;;;;;;;;;;;4.00;80.40;;;;;;4990005;28;19920;-57
2021/03/19 04:56:34;;;;;;;;;;;4.00;80.40;;;;;;5000985;28;19925;-57
2021/03/19 04:58:59;;;;;;;;;;;3.90;80.40;;;;;;5005600;28;20451;-57
2021/03/19 05:01:24;;;;;;;;;;;3.90;80.30;;;;;;4990608;28;19910;-56
2021/03/19 05:03:50;;;;;;;;;;;3.90;80.40;;;;;;4997625;28;20437;-57
2021/03/19 05:06:15;;;;;;;;;;;3.90;80.40;;;;;;5005030;28;19979;-57
2021/03/19 05:08:41;;;;;;;;;;;3.90;80.50;;;;;;5004286;28;20005;-56
2021/03/19 05:11:06;;;;;;;;;;;3.90;80.50;;;;;;4989288;28;19914;-57
2021/03/19 05:13:32;;;;;;;;;;;3.90;80.60;;;;;;4988243;28;19910;-56
2021/03/19 05:15:57;;;;;;;;;;;3.90;80.60;;;;;;4986789;28;19910;-58
2021/03/19 05:18:23;;;;;;;;;;;3.90;80.60;;;;;;4990503;28;20387;-58
2021/03/19 05:20:48;;;;;;;;;;;3.90;80.60;;;;;;4988874;28;19913;-56
2021/03/19 05:23:18;;;;;;;;;;;3.90;80.60;;;;;;4989875;28;20292;-56
2021/03/19 05:25:43;;;;;;;;;;;3.80;80.50;;;;;;5012112;28;19916;-57
2021/03/19 05:28:08;;;;;;;;;;;3.80;81.20;;;;;;4989872;28;19925;-58
2021/03/19 05:30:34;;;;;;;;;;;3.80;80.70;;;;;;4994379;28;19917;-57
2021/03/19 05:33:02;;;;;;;;;;;3.80;80.70;;;;;;4992030;28;19910;-58
2021/03/19 05:35:27;;;;;;;;;;;3.80;80.70;;;;;;5003715;28;19914;-58
2021/03/19 05:37:52;;;;;;;;;;;3.80;80.70;;;;;;4990321;28;19939;-56
2021/03/19 05:40:23;;;;;;;;;;;3.80;80.60;;;;;;4990380;28;19914;-58
2021/03/19 05:42:48;;;;;;;;;;;3.80;80.60;;;;;;5004894;28;19959;-56
2021/03/19 05:45:14;;;;;;;;;;;3.70;80.70;;;;;;4989969;28;19910;-59
2021/03/19 05:47:39;;;;;;;;;;;3.80;80.80;;;;;;4988793;28;19917;-60
2021/03/19 05:50:05;;;;;;;;;;;3.70;80.80;;;;;;4996390;28;19917;-57
2021/03/19 05:52:34;;;;;;;;;;;3.70;80.70;;;;;;5002379;28;19910;-59
2021/03/19 05:55:04;;;;;;;;;;;3.70;80.60;;;;;;4990325;28;19921;-58
2021/03/19 05:57:30;;;;;;;;;;;3.70;80.70;;;;;;5006541;28;19936;-58
2021/03/19 05:59:56;;;;;;;;;;;3.70;80.80;;;;;;4992579;28;20373;-58
2021/03/19 06:02:23;;;;;;;;;;;3.70;80.80;;;;;;4990032;28;20361;-58
2021/03/19 06:05:09;;;;;;;;;;;3.70;80.80;;;;;;5009040;28;20012;-57
2021/03/19 06:07:41;;;;;;;;;;;3.60;80.80;;;;;;5004184;28;19920;-57
2021/03/19 06:10:19;;;;;;;;;;;3.60;80.80;;;;;;4993884;28;19921;-56
2021/03/19 06:12:48;;;;;;;;;;;3.60;80.90;;;;;;4992606;28;19910;-58
2021/03/19 06:15:24;;;;;;;;;;;3.60;80.90;;;;;;5007030;28;19910;-58
2021/03/19 06:17:49;;;;;;;;;;;3.60;80.90;;;;;;4999298;28;19917;-56
2021/03/19 06:20:15;;;;;;;;;;;3.60;81.00;;;;;;4991952;28;19914;-57
2021/03/19 06:22:46;;;;;;;;;;;3.60;80.90;;;;;;4999921;28;19911;-57
2021/03/19 06:25:14;;;;;;;;;;;3.60;81.00;;;;;;5007185;28;19910;-56
2021/03/19 06:27:46;;;;;;;;;;;3.60;81.00;;;;;;4991983;28;19910;-60
2021/03/19 06:30:18;;;;;;;;;;;3.60;81.10;;;;;;5006511;28;20442;-55
2021/03/19 06:32:44;;;;;;;;;;;3.60;81.00;;;;;;5008067;28;19957;-56
2021/03/19 06:35:10;;;;;;;;;;;3.60;81.00;;;;;;5009774;28;19989;-57
2021/03/19 06:37:39;;;;;;;;;;;3.60;81.00;;;;;;4992277;28;19914;-56
2021/03/19 06:40:22;;;;;;;;;;;3.60;81.10;;;;;;5004463;28;19920;-58
2021/03/19 06:42:48;;;;;;;;;;;3.50;81.70;;;;;;5004854;28;19925;-59
2021/03/19 06:45:13;;;;;;;;;;;3.50;81.00;;;;;;5006058;28;19918;-59
2021/03/19 06:47:40;;;;;;;;;;;3.50;81.10;;;;;;4988842;28;20344;-59
2021/03/19 06:50:06;;;;;;;;;;;3.50;81.10;;;;;;4993656;28;20009;-61
2021/03/19 06:52:31;;;;;;;;;;;3.60;81.10;;;;;;5002928;28;20009;-60
2021/03/19 06:54:59;;;;;;;;;;;3.50;81.10;;;;;;4989125;28;19913;-58
2021/03/19 06:57:25;;;;;;;;;;;3.50;81.10;;;;;;4992775;28;19920;-58
2021/03/19 06:59:58;;;;;;;;;;;3.50;81.20;;;;;;5006562;28;19925;-56
2021/03/19 07:02:48;;;;;;;;;;;3.50;81.00;;;;;;5002559;28;19921;-56
2021/03/19 07:05:28;;;;;;;;;;;3.50;80.90;;;;;;4988599;28;19921;-59
2021/03/19 07:07:53;;;;;;;;;;;3.60;80.90;;;;;;5003966;28;19914;-57
2021/03/19 07:10:38;;;;;;;;;;;3.60;80.90;;;;;;4987285;28;19914;-60
2021/03/19 07:13:13;;;;;;;;;;;3.60;80.80;;;;;;4990344;28;19914;-59
2021/03/19 07:15:46;;;;;;;;;;;3.50;80.90;;;;;;4990294;28;19977;-59
2021/03/19 07:18:16;;;;;;;;;;;3.50;81.00;;;;;;5005955;28;20009;-55
2021/03/19 07:20:46;;;;;;;;;;;3.50;81.10;;;;;;5005881;28;19922;-57
2021/03/19 07:23:11;;;;;;;;;;;3.50;81.20;;;;;;5006954;28;19918;-57
2021/03/19 07:25:49;;;;;;;;;;;3.50;81.30;;;;;;4990880;28;19929;-57
2021/03/19 07:28:33;;;;;;;;;;;3.50;81.40;;;;;;4990636;28;19914;-58
2021/03/19 07:31:07;;;;;;;;;;;3.50;81.50;;;;;;4990207;28;20000;-57
2021/03/19 07:33:42;;;;;;;;;;;3.50;81.50;;;;;;4999830;28;19941;-57
2021/03/19 07:36:23;;;;;;;;;;;3.50;81.60;;;;;;5004622;28;19922;-56
2021/03/19 07:39:04;;;;;;;;;;;3.50;81.70;;;;;;5004471;28;19910;-58
2021/03/19 07:41:34;;;;;;;;;;;3.50;81.70;;;;;;5006054;28;19952;-58
2021/03/19 07:44:10;;;;;;;;;;;3.50;81.80;;;;;;5004429;28;19914;-58
2021/03/19 07:46:39;;;;;;;;;;;3.50;81.80;;;;;;5005224;28;19918;-59
2021/03/19 07:49:24;;;;;;;;;;;3.60;82.00;;;;;;5009894;28;20391;-58
2021/03/19 07:51:50;;;;;;;;;;;3.60;82.00;;;;;;4997898;28;19976;-55
2021/03/19 07:54:18;;;;;;;;;;;3.60;82.00;;;;;;4988172;28;19925;-58
2021/03/19 07:57:04;;;;;;;;;;;3.60;82.10;;;;;;5003462;28;19925;-57
2021/03/19 07:59:40;;;;;;;;;;;3.60;82.20;;;;;;4982628;28;19924;-55
2021/03/19 08:02:11;;;;;;;;;;;3.60;82.20;;;;;;4996052;28;20362;-56
2021/03/19 08:04:55;;;;;;;;;;;3.60;82.20;;;;;;4985260;28;20020;-55
2021/03/19 08:07:24;;;;;;;;;;;3.60;82.20;;;;;;4986420;28;20272;-56
2021/03/19 08:09:49;;;;;;;;;;;3.60;82.20;;;;;;4990387;28;19920;-56
2021/03/19 08:12:33;;;;;;;;;;;3.60;82.00;;;;;;4985577;28;19918;-57
2021/03/19 08:15:05;;;;;;;;;;;3.70;82.00;;;;;;4989084;28;19990;-56
2021/03/19 08:17:37;;;;;;;;;;;3.60;81.80;;;;;;5004876;28;19968;-58
2021/03/19 08:20:16;;;;;;;;;;;3.70;81.80;;;;;;5001259;28;20500;-59
2021/03/19 08:22:46;;;;;;;;;;;3.70;82.40;;;;;;5001645;28;19914;-59
2021/03/19 08:25:18;;;;;;;;;;;3.70;81.70;;;;;;5003941;28;19910;-59
2021/03/19 08:28:02;;;;;;;;;;;3.70;81.70;;;;;;4979046;28;19913;-56
2021/03/19 08:30:37;;;;;;;;;;;3.70;81.60;;;;;;4989926;28;19929;-56
2021/03/19 08:33:02;;;;;;;;;;;3.70;81.60;;;;;;4990088;28;19918;-57
2021/03/19 08:35:46;;;;;;;;;;;3.70;81.60;;;;;;4984008;28;20426;-56
2021/03/19 08:38:15;;;;;;;;;;;3.70;81.50;;;;;;4984454;28;19914;-58
2021/03/19 08:40:45;;;;;;;;;;;3.70;81.50;;;;;;4986788;28;20380;-57
2021/03/19 08:43:14;;;;;;;;;;;3.70;81.50;;;;;;5004810;28;19948;-58
2021/03/19 08:45:39;;;;;;;;;;;3.70;81.30;;;;;;5003822;28;19924;-59
2021/03/19 08:48:06;;;;;;;;;;;3.70;81.30;;;;;;5000237;28;19921;-58
2021/03/19 08:50:35;;;;;;;;;;;3.70;81.40;;;;;;4998808;28;19914;-58
2021/03/19 08:53:01;;;;;;;;;;;3.70;81.10;;;;;;5001761;28;19914;-55
2021/03/19 08:55:27;;;;;;;;;;;3.80;81.00;;;;;;4987057;28;19920;-56
2021/03/19 08:57:57;;;;;;;;;;;3.70;81.00;;;;;;5003278;28;19921;-59
2021/03/19 09:00:25;;;;;;;;;;;3.80;81.10;;;;;;4986273;28;19972;-56
2021/03/19 09:02:51;;;;;;;;;;;3.80;81.00;;;;;;4986549;28;19925;-57
2021/03/19 09:05:24;;;;;;;;;;;3.80;81.00;;;;;;4999575;28;19921;-58
2021/03/19 09:08:09;;;;;;;;;;;3.80;81.00;;;;;;4994546;28;19920;-57
2021/03/19 09:10:34;;;;;;;;;;;3.80;80.80;;;;;;4988309;28;19913;-57
2021/03/19 09:13:02;;;;;;;;;;;3.80;80.80;;;;;;4988602;28;19918;-57
2021/03/19 09:15:28;;;;;;;;;;;3.80;80.90;;;;;;4984109;28;19910;-57
2021/03/19 09:18:03;;;;;;;;;;;3.90;80.80;;;;;;5000199;28;19917;-55
2021/03/19 09:20:38;;;;;;;;;;;3.90;80.90;;;;;;5000621;28;19928;-58
2021/03/19 09:23:13;;;;;;;;;;;3.90;80.80;;;;;;4989491;28;20277;-56
2021/03/19 09:25:38;;;;;;;;;;;3.90;80.80;;;;;;5001823;28;19968;-59
2021/03/19 09:28:10;;;;;;;;;;;3.90;80.70;;;;;;4987442;28;20264;-57
2021/03/19 09:30:37;;;;;;;;;;;3.90;80.60;;;;;;4975834;28;19925;-56
2021/03/19 09:33:02;;;;;;;;;;;3.90;80.60;;;;;;4999860;28;19934;-58
2021/03/19 09:35:34;;;;;;;;;;;4.00;80.60;;;;;;5005071;28;19913;-59
2021/03/19 09:37:59;;;;;;;;;;;4.00;80.50;;;;;;4993587;28;19916;-56
2021/03/19 09:40:45;;;;;;;;;;;4.00;80.40;;;;;;4992224;28;20016;-58
2021/03/19 09:43:30;;;;;;;;;;;4.10;80.40;;;;;;4985880;28;19922;-59
2021/03/19 09:46:01;;;;;;;;;;;4.00;80.20;;;;;;4977915;28;19983;-56
2021/03/19 09:48:28;;;;;;;;;;;4.10;80.20;;;;;;4985533;28;19927;-58
2021/03/19 09:50:55;;;;;;;;;;;4.10;80.20;;;;;;4986648;28;19918;-58
2021/03/19 09:53:20;;;;;;;;;;;4.20;80.10;;;;;;5003942;28;19924;-58
2021/03/19 09:55:45;;;;;;;;;;;4.20;80.10;;;;;;4986364;28;19922;-58
2021/03/19 09:58:23;;;;;;;;;;;4.20;80.10;;;;;;4989859;28;20357;-56
2021/03/19 10:00:49;;;;;;;;;;;4.20;80.00;;;;;;4986666;28;19918;-57
2021/03/19 10:03:15;;;;;;;;;;;4.30;79.80;;;;;;5006405;28;20381;-58
2021/03/19 10:05:41;;;;;;;;;;;4.30;79.30;;;;;;5005346;28;19917;-56
2021/03/19 10:08:06;;;;;;;;;;;4.30;78.90;;;;;;4994091;28;20292;-57
2021/03/19 10:10:41;;;;;;;;;;;4.40;78.90;;;;;;5003866;28;20008;-57
2021/03/19 10:13:07;;;;;;;;;;;4.40;78.60;;;;;;4989839;28;19941;-56
2021/03/19 10:15:32;;;;;;;;;;;4.50;78.40;;;;;;4990471;28;20009;-55
2021/03/19 10:17:58;;;;;;;;;;;4.40;78.30;;;;;;4991896;28;19922;-58
2021/03/19 10:20:28;;;;;;;;;;;4.50;78.30;;;;;;4991115;28;19921;-58
2021/03/19 10:22:53;;;;;;;;;;;4.50;78.40;;;;;;4990485;28;20369;-58
2021/03/19 10:25:32;;;;;;;;;;;4.60;78.50;;;;;;4990437;28;19920;-57
2021/03/19 10:27:59;;;;;;;;;;;4.60;78.50;;;;;;5007255;28;19914;-57
2021/03/19 10:30:30;;;;;;;;;;;4.60;78.40;;;;;;4998203;28;19921;-56
2021/03/19 10:32:56;;;;;;;;;;;4.70;78.40;;;;;;5006267;28;19976;-57
2021/03/19 10:35:27;;;;;;;;;;;4.70;78.20;;;;;;5005641;28;20399;-55
2021/03/19 10:37:53;;;;;;;;;;;4.70;78.30;;;;;;5003526;28;19932;-57
2021/03/19 10:40:36;;;;;;;;;;;4.70;78.20;;;;;;5005951;28;19922;-57
2021/03/19 10:43:11;;;;;;;;;;;4.80;78.20;;;;;;4988394;28;19914;-57
2021/03/19 10:45:41;;;;;;;;;;;4.80;77.90;;;;;;4987448;28;19922;-59
2021/03/19 10:48:22;;;;;;;;;;;4.80;77.70;;;;;;5002783;28;20377;-56
2021/03/19 10:50:53;;;;;;;;;;;4.80;77.60;;;;;;4989235;28;20363;-56
2021/03/19 10:53:20;;;;;;;;;;;4.90;77.30;;;;;;4988288;28;19993;-57
2021/03/19 10:55:47;;;;;;;;;;;4.90;77.40;;;;;;5002603;28;19924;-57
2021/03/19 10:58:26;;;;;;;;;;;4.90;77.20;;;;;;5004614;28;19921;-56
2021/03/19 11:00:52;;;;;;;;;;;4.90;77.00;;;;;;5003791;28;20414;-57
2021/03/19 11:03:36;;;;;;;;;;;5.00;76.80;;;;;;4987737;28;19921;-58
2021/03/19 11:06:03;;;;;;;;;;;5.00;76.00;;;;;;4989691;28;19968;-56
2021/03/19 11:08:28;;;;;;;;;;;5.00;76.30;;;;;;5003855;28;19933;-57
2021/03/19 11:10:54;;;;;;;;;;;5.00;76.10;;;;;;4983467;28;20373;-56
2021/03/19 11:13:25;;;;;;;;;;;5.10;76.10;;;;;;4987832;28;19914;-57
2021/03/19 11:15:51;;;;;;;;;;;5.10;76.30;;;;;;4989337;28;19921;-59
2021/03/19 11:18:16;;;;;;;;;;;5.20;76.30;;;;;;4984033;28;19914;-58
2021/03/19 11:20:42;;;;;;;;;;;5.20;76.30;;;;;;4987702;28;19928;-56
2021/03/19 11:23:16;;;;;;;;;;;5.30;76.20;;;;;;4986679;28;19934;-56
2021/03/19 11:25:44;;;;;;;;;;;5.30;76.40;;;;;;4995039;28;19937;-56
2021/03/19 11:28:28;;;;;;;;;;;5.30;74.80;;;;;;4985565;28;20584;-56
2021/03/19 11:30:53;;;;;;;;;;;5.30;74.60;;;;;;4986517;28;19953;-55
2021/03/19 11:33:20;;;;;;;;;;;5.40;74.50;;;;;;4999574;28;19963;-58
2021/03/19 11:36:05;;;;;;;;;;;5.40;74.50;;;;;;5000549;28;19929;-57
2021/03/19 11:38:31;;;;;;;;;;;5.50;74.90;;;;;;5001615;28;19920;-56
2021/03/19 11:40:57;;;;;;;;;;;5.50;74.90;;;;;;4996848;28;19918;-58
2021/03/19 11:43:22;;;;;;;;;;;5.50;74.80;;;;;;5001888;28;20036;-59
2021/03/19 11:45:47;;;;;;;;;;;5.50;74.90;;;;;;4985306;28;20037;-59
2021/03/19 11:48:15;;;;;;;;;;;5.50;75.20;;;;;;4983740;28;19928;-59
2021/03/19 11:50:41;;;;;;;;;;;5.60;74.70;;;;;;4996931;28;19961;-57
2021/03/19 11:53:08;;;;;;;;;;;5.60;74.50;;;;;;4995259;28;19913;-59
2021/03/19 11:55:36;;;;;;;;;;;5.70;74.50;;;;;;4982316;28;20000;-57
2021/03/19 11:58:03;;;;;;;;;;;5.70;74.60;;;;;;4986540;28;19910;-56
2021/03/19 12:00:29;;;;;;;;;;;5.70;74.40;;;;;;5003511;28;20004;-58
2021/03/19 12:02:55;;;;;;;;;;;5.70;74.30;;;;;;5003291;28;19926;-57
2021/03/19 12:05:22;;;;;;;;;;;5.70;74.10;;;;;;4981468;28;19921;-57
2021/03/19 12:07:47;;;;;;;;;;;5.80;73.10;;;;;;4985467;28;19914;-59
2021/03/19 12:10:13;;;;;;;;;;;5.80;72.40;;;;;;5001522;28;19925;-58
2021/03/19 12:12:39;;;;;;;;;;;5.90;72.90;;;;;;4983987;28;19930;-57
2021/03/19 12:15:05;;;;;;;;;;;5.90;72.50;;;;;;4988833;28;19924;-58
2021/03/19 12:17:30;;;;;;;;;;;6.00;71.80;;;;;;4989099;28;19960;-59
2021/03/19 12:19:56;;;;;;;;;;;6.00;72.00;;;;;;4987515;28;20411;-59
2021/03/19 12:22:21;;;;;;;;;;;6.00;72.00;;;;;;4994586;28;19914;-57
2021/03/19 12:24:46;;;;;;;;;;;6.10;72.60;;;;;;4988460;28;20821;-59
2021/03/19 12:27:13;;;;;;;;;;;6.20;72.90;;;;;;4989605;28;19921;-59
2021/03/19 12:29:38;;;;;;;;;;;6.20;73.10;;;;;;4989538;28;20009;-58
2021/03/19 12:32:04;;;;;;;;;;;6.30;73.30;;;;;;4985377;28;19914;-58
2021/03/19 12:34:29;;;;;;;;;;;6.30;73.00;;;;;;5003974;28;20107;-57
2021/03/19 12:36:55;;;;;;;;;;;6.30;72.70;;;;;;5008105;28;19917;-58
2021/03/19 12:39:21;;;;;;;;;;;6.40;72.30;;;;;;5006786;28;19975;-57
2021/03/19 12:41:47;;;;;;;;;;;6.50;72.20;;;;;;4987979;28;19928;-56
2021/03/19 12:44:12;;;;;;;;;;;6.50;72.30;;;;;;5001592;28;20387;-57
2021/03/19 12:46:38;;;;;;;;;;;6.60;72.10;;;;;;4985089;28;19918;-58
2021/03/19 12:49:04;;;;;;;;;;;6.60;71.90;;;;;;4983023;28;19914;-59
2021/03/19 12:51:29;;;;;;;;;;;6.60;72.20;;;;;;5002509;28;19921;-59
2021/03/19 12:53:55;;;;;;;;;;;6.70;71.80;;;;;;4991669;28;20427;-56
2021/03/19 12:56:20;;;;;;;;;;;6.70;71.10;;;;;;4987483;28;19914;-59
2021/03/19 12:58:46;;;;;;;;;;;6.70;69.80;;;;;;4987688;28;19917;-58
2021/03/19 13:01:13;;;;;;;;;;;6.70;68.30;;;;;;4984828;28;20431;-59
2021/03/19 13:03:38;;;;;;;;;;;6.80;68.90;;;;;;4985827;28;19986;-60
2021/03/19 13:06:04;;;;;;;;;;;6.80;69.00;;;;;;5002761;28;19922;-57
2021/03/19 13:08:29;;;;;;;;;;;6.80;68.60;;;;;;4994367;28;19928;-57
2021/03/19 13:10:55;;;;;;;;;;;6.80;69.00;;;;;;4991731;28;19920;-58
2021/03/19 13:13:20;;;;;;;;;;;6.80;68.80;;;;;;4992274;28;19964;-57
2021/03/19 13:15:46;;;;;;;;;;;6.90;69.30;;;;;;4991185;28;20381;-59
2021/03/19 13:18:13;;;;;;;;;;;6.90;69.10;;;;;;5006378;28;19914;-58
2021/03/19 13:20:38;;;;;;;;;;;7.00;69.90;;;;;;5009667;28;19940;-57
2021/03/19 13:23:06;;;;;;;;;;;7.00;68.70;;;;;;5005828;28;20369;-60
2021/03/19 13:25:32;;;;;;;;;;;7.00;69.50;;;;;;5006985;28;19925;-60
2021/03/19 13:27:57;;;;;;;;;;;7.10;69.70;;;;;;4993325;28;19914;-57
2021/03/19 13:30:23;;;;;;;;;;;7.10;69.80;;;;;;4993559;28;19927;-57
2021/03/19 13:32:49;;;;;;;;;;;7.20;69.60;;;;;;5007518;28;20369;-59
2021/03/19 13:35:21;;;;;;;;;;;7.20;69.30;;;;;;5008801;28;19921;-57
2021/03/19 13:37:47;;;;;;;;;;;7.30;68.80;;;;;;4995797;28;19917;-58
2021/03/19 13:40:13;;;;;;;;;;;7.30;68.90;;;;;;5005473;28;19917;-57
2021/03/19 13:42:39;;;;;;;;;;;7.40;68.90;;;;;;5009056;28;19979;-60
2021/03/19 13:45:05;;;;;;;;;;;7.40;68.70;;;;;;5009858;28;20258;-57
2021/03/19 13:47:30;;;;;;;;;;;7.50;68.60;;;;;;5012764;28;20428;-58
2021/03/19 13:49:56;;;;;;;;;;;7.50;68.60;;;;;;4988486;28;20289;-56
2021/03/19 13:52:21;;;;;;;;;;;7.60;68.80;;;;;;4990804;28;19921;-57
2021/03/19 13:54:46;;;;;;;;;;;7.60;69.00;;;;;;4991620;28;19980;-57
2021/03/19 13:57:12;;;;;;;;;;;7.60;69.00;;;;;;4994054;28;19918;-57
2021/03/19 13:59:38;;;;;;;;;;;7.60;68.80;;;;;;5010208;28;19918;-58
2021/03/19 14:02:03;;;;;;;;;;;7.70;68.60;;;;;;4990293;28;20381;-58
2021/03/19 14:04:29;;;;;;;;;;;7.70;68.40;;;;;;4989578;28;19926;-56
2021/03/19 14:06:54;;;;;;;;;;;7.70;69.40;;;;;;4990249;28;19917;-60
2021/03/19 14:09:20;;;;;;;;;;;7.80;68.90;;;;;;4996966;28;20395;-57
2021/03/19 14:11:45;;;;;;;;;;;7.80;68.80;;;;;;5009545;28;19918;-57
2021/03/19 14:14:11;;;;;;;;;;;7.80;68.40;;;;;;4993770;28;20369;-57
2021/03/19 14:16:36;;;;;;;;;;;7.90;68.10;;;;;;4994335;28;20249;-59
2021/03/19 14:19:02;;;;;;;;;;;7.90;68.10;;;;;;4991732;28;20016;-60
2021/03/19 14:21:27;;;;;;;;;;;7.90;67.70;;;;;;4988975;28;19914;-59
2021/03/19 14:23:53;;;;;;;;;;;7.90;67.30;;;;;;5005053;28;20004;-59
2021/03/19 14:26:18;;;;;;;;;;;7.90;66.30;;;;;;4991006;28;19964;-57
2021/03/19 14:28:44;;;;;;;;;;;7.90;66.20;;;;;;4989526;28;20262;-57
2021/03/19 14:31:09;;;;;;;;;;;8.00;66.10;;;;;;5002983;28;19918;-59
2021/03/19 14:33:35;;;;;;;;;;;8.00;66.90;;;;;;5002474;28;19913;-57
2021/03/19 14:36:01;;;;;;;;;;;8.00;67.00;;;;;;4990685;28;19914;-60
2021/03/19 14:38:26;;;;;;;;;;;8.10;67.10;;;;;;4988611;28;20312;-57
2021/03/19 14:40:52;;;;;;;;;;;8.10;67.00;;;;;;4988682;28;19922;-57